createdAt,value
2022-10-22T00:00:22.367Z,23.23
2022-10-22T00:05:42.891Z,23.92
2022-10-22T00:11:21.814Z,21.48
2022-10-22T00:16:42.376Z,20.52
2022-10-22T00:22:05.811Z,22.92
2022-10-22T00:27:26.427Z,21.00
2022-10-22T00:32:46.784Z,22.60
2022-10-22T00:38:07.564Z,21.10
2022-10-22T00:43:28.283Z,22.17
2022-10-22T00:48:49.641Z,22.00
2022-10-22T00:54:10.803Z,21.52
2022-10-22T00:59:31.807Z,22.80
2022-10-22T01:04:52.602Z,21.40
2022-10-22T01:10:19.219Z,20.27
2022-10-22T01:15:53.764Z,25.63
2022-10-22T01:21:25.189Z,22.97
2022-10-22T01:27:10.813Z,23.05
2022-10-22T01:32:37.045Z,21.95
2022-10-22T01:38:03.643Z,20.73
2022-10-22T01:43:25.739Z,19.88
2022-10-22T01:49:25.496Z,17.77
2022-10-22T01:54:59.699Z,18.65
2022-10-22T02:00:20.709Z,17.38
2022-10-22T02:05:49.063Z,18.13
2022-10-22T02:11:12.743Z,20.63
2022-10-22T02:16:41.587Z,22.03
2022-10-22T02:22:02.926Z,23.25
2022-10-22T02:27:30.358Z,21.85
2022-10-22T02:33:08.542Z,25.42
2022-10-22T02:38:31.078Z,27.35
2022-10-22T02:43:54.970Z,27.30
2022-10-22T02:49:15.692Z,25.77
2022-10-22T02:54:36.559Z,29.67
2022-10-22T02:59:57.052Z,26.38
2022-10-22T03:05:18.296Z,28.20
2022-10-22T03:10:38.768Z,28.52
2022-10-22T03:15:59.699Z,29.77
2022-10-22T03:21:33.986Z,28.48
2022-10-22T03:26:54.641Z,28.65
2022-10-22T03:32:15.183Z,25.25
2022-10-22T03:37:37.613Z,22.25
2022-10-22T03:42:58.787Z,22.40
2022-10-22T03:48:19.632Z,22.17
2022-10-22T03:53:40.593Z,20.73
2022-10-22T03:59:02.251Z,21.67
2022-10-22T04:04:22.874Z,21.65
2022-10-22T04:09:43.675Z,23.38
2022-10-22T04:15:05.478Z,24.20
2022-10-22T04:20:27.910Z,25.05
2022-10-22T04:25:48.394Z,22.15
2022-10-22T04:31:18.482Z,23.30
2022-10-22T04:36:38.675Z,25.00
2022-10-22T04:41:59.167Z,22.35
2022-10-22T04:47:19.923Z,24.55
2022-10-22T04:52:40.675Z,24.25
2022-10-22T04:58:01.352Z,22.75
2022-10-22T05:03:21.577Z,24.08
2022-10-22T05:08:43.565Z,23.83
2022-10-22T05:14:06.092Z,22.13
2022-10-22T05:19:29.391Z,22.10
2022-10-22T05:24:50.252Z,23.20
2022-10-22T05:30:11.730Z,23.85
2022-10-22T05:35:32.729Z,24.30
2022-10-22T05:41:05.757Z,24.05
2022-10-22T05:46:29.570Z,25.23
2022-10-22T05:51:49.958Z,25.00
2022-10-22T05:57:10.743Z,24.50
2022-10-22T06:02:31.767Z,23.20
2022-10-22T06:07:52.687Z,26.05
2022-10-22T06:13:13.498Z,26.23
2022-10-22T06:18:34.712Z,26.02
2022-10-22T06:23:59.566Z,27.42
2022-10-22T06:29:20.521Z,29.10
2022-10-22T06:34:41.141Z,28.55
2022-10-22T06:40:01.311Z,28.55
2022-10-22T06:45:21.587Z,26.42
2022-10-22T06:50:42.020Z,26.90
2022-10-22T06:56:10.418Z,27.50
2022-10-22T07:01:33.581Z,27.15
2022-10-22T07:06:57.358Z,25.08
2022-10-22T07:12:17.823Z,24.83
2022-10-22T07:23:03.831Z,24.90
2022-10-22T07:28:25.147Z,25.45
2022-10-22T07:33:45.999Z,23.55
2022-10-22T07:39:06.667Z,26.33
2022-10-22T07:44:27.215Z,29.15
2022-10-22T07:49:47.566Z,21.40
2022-10-22T07:55:08.743Z,20.77
2022-10-22T08:00:29.229Z,22.80
2022-10-22T08:05:51.339Z,21.70
2022-10-22T08:11:12.078Z,21.23
2022-10-22T08:16:32.541Z,19.60
2022-10-22T08:21:53.315Z,21.63
2022-10-22T08:27:14.248Z,19.65
2022-10-22T08:32:34.581Z,20.17
2022-10-22T08:37:55.036Z,20.25
2022-10-22T08:43:41.742Z,19.50
2022-10-22T08:49:05.579Z,20.67
2022-10-22T08:54:43.182Z,19.47
2022-10-22T09:00:15.264Z,17.20
2022-10-22T09:06:13.326Z,19.20
2022-10-22T09:11:39.754Z,18.73
2022-10-22T09:17:28.612Z,16.38
2022-10-22T09:23:18.032Z,16.50
2022-10-22T09:28:38.732Z,15.13
2022-10-22T09:34:05.714Z,14.73
2022-10-22T09:46:56.910Z,12.77
2022-10-22T09:52:28.830Z,13.38
2022-10-22T09:57:58.299Z,11.00
2022-10-22T10:03:22.310Z,10.52
2022-10-22T10:08:42.929Z,9.63
2022-10-22T10:14:13.715Z,10.52
2022-10-22T10:19:43.435Z,8.57
2022-10-22T10:25:13.357Z,8.18
2022-10-22T10:30:44.639Z,8.07
2022-10-22T10:36:27.585Z,8.80
2022-10-22T10:42:06.722Z,6.82
2022-10-22T10:47:30.172Z,6.88
2022-10-22T10:53:03.714Z,5.35
2022-10-22T10:58:39.106Z,5.20
2022-10-22T11:04:21.154Z,5.03
2022-10-22T11:10:03.458Z,5.10
2022-10-22T11:15:37.749Z,5.63
2022-10-22T11:21:18.872Z,5.35
2022-10-22T11:27:05.391Z,5.55
2022-10-22T11:32:27.333Z,5.70
2022-10-22T11:37:49.252Z,5.72
2022-10-22T11:43:25.427Z,5.00
2022-10-22T11:49:01.928Z,5.93
2022-10-22T11:54:42.829Z,5.65
2022-10-22T12:00:28.289Z,5.88
2022-10-22T12:06:12.174Z,5.13
2022-10-22T12:11:37.647Z,5.75
2022-10-22T12:17:10.118Z,5.43
2022-10-22T12:22:32.902Z,6.80
2022-10-22T12:27:57.190Z,6.45
2022-10-22T12:33:22.756Z,7.13
2022-10-22T12:38:47.193Z,6.80
2022-10-22T12:44:10.919Z,8.70
2022-10-22T12:49:38.825Z,8.13
2022-10-22T12:54:59.618Z,8.48
2022-10-22T13:00:32.371Z,7.38
2022-10-22T13:05:52.979Z,7.70
2022-10-22T13:11:13.817Z,6.40
2022-10-22T13:22:00.288Z,6.53
2022-10-22T13:27:21.062Z,6.00
2022-10-22T13:32:42.019Z,5.53
2022-10-22T13:38:03.893Z,5.82
2022-10-22T13:43:32.212Z,5.30
2022-10-22T13:48:55.460Z,7.18
2022-10-22T13:54:22.646Z,6.30
2022-10-22T13:59:43.334Z,6.55
2022-10-22T14:05:08.572Z,7.15
2022-10-22T14:10:28.898Z,5.50
2022-10-22T14:15:53.183Z,7.03
2022-10-22T14:21:16.851Z,7.00
2022-10-22T14:26:37.366Z,6.72
2022-10-22T14:31:57.774Z,6.88
2022-10-22T14:37:20.526Z,6.30
2022-10-22T14:42:43.176Z,6.47
2022-10-22T14:48:04.260Z,7.32
2022-10-22T14:53:24.617Z,6.32
2022-10-22T14:58:46.592Z,7.65
2022-10-22T15:04:07.332Z,6.75
2022-10-22T15:09:27.852Z,7.28
2022-10-22T15:14:48.379Z,7.10
2022-10-22T15:20:09.887Z,6.82
2022-10-22T15:25:30.627Z,7.43
2022-10-22T15:30:59.628Z,7.20
2022-10-22T15:36:20.104Z,6.75
2022-10-22T15:41:40.975Z,6.65
2022-10-22T15:47:04.072Z,6.05
2022-10-22T15:52:25.436Z,7.70
2022-10-22T15:57:46.319Z,6.07
2022-10-22T16:03:07.684Z,6.28
2022-10-22T16:08:28.434Z,5.70
2022-10-22T16:13:53.792Z,5.50
2022-10-22T16:19:16.469Z,4.80
2022-10-22T16:24:40.901Z,4.90
2022-10-22T16:30:01.407Z,7.75
2022-10-22T16:35:22.260Z,5.47
2022-10-22T16:40:42.611Z,7.15
2022-10-22T16:46:04.033Z,5.20
2022-10-22T16:51:26.408Z,4.80
2022-10-22T16:56:47.080Z,5.53
2022-10-22T17:02:12.120Z,4.47
2022-10-22T17:07:32.785Z,5.28
2022-10-22T17:12:53.565Z,3.72
2022-10-22T17:18:14.456Z,3.25
2022-10-22T17:23:35.493Z,2.60
2022-10-22T17:28:56.141Z,2.83
2022-10-22T17:34:18.382Z,2.47
2022-10-22T17:39:39.596Z,2.25
2022-10-22T17:45:00.744Z,1.98
2022-10-22T17:50:21.646Z,2.20
2022-10-22T17:55:42.006Z,1.92
2022-10-22T18:01:03.281Z,2.55
2022-10-22T18:06:23.685Z,2.60
2022-10-22T18:11:44.910Z,2.60
2022-10-22T18:17:05.509Z,2.42
2022-10-22T18:22:26.676Z,4.43
2022-10-22T18:27:47.872Z,2.58
2022-10-22T18:33:11.795Z,3.53
2022-10-22T18:44:02.273Z,4.13
2022-10-22T18:49:25.668Z,4.35
2022-10-22T18:54:46.277Z,3.72
2022-10-22T19:00:07.858Z,4.43
2022-10-22T19:05:28.723Z,4.40
2022-10-22T19:10:49.185Z,3.08
2022-10-22T19:16:18.374Z,2.65
2022-10-22T19:21:39.191Z,2.92
2022-10-22T19:26:59.664Z,3.83
2022-10-22T19:32:20.993Z,3.33
2022-10-22T19:37:46.187Z,3.80
2022-10-22T19:43:08.943Z,3.33
2022-10-22T19:48:29.976Z,4.13
2022-10-22T19:53:51.037Z,4.05
2022-10-22T19:59:12.166Z,4.80
2022-10-22T20:04:32.625Z,3.38
2022-10-22T20:09:53.755Z,3.67
2022-10-22T20:15:14.259Z,4.13
2022-10-22T20:20:38.142Z,4.10
2022-10-22T20:25:58.496Z,3.08
2022-10-22T20:31:21.330Z,3.60
2022-10-22T20:36:41.923Z,3.83
2022-10-22T20:42:02.726Z,3.55
2022-10-22T20:47:30.394Z,4.63
2022-10-22T20:53:00.076Z,4.32
2022-10-22T20:58:24.461Z,3.42
2022-10-22T21:03:51.996Z,3.85
2022-10-22T21:09:14.555Z,3.58
2022-10-22T21:14:35.370Z,3.70
2022-10-22T21:19:56.441Z,2.90
2022-10-22T21:25:17.239Z,3.05
2022-10-22T21:30:44.743Z,2.83
2022-10-22T21:36:06.894Z,2.78
2022-10-22T21:41:27.408Z,2.63
2022-10-22T21:46:47.939Z,3.10
2022-10-22T21:52:09.047Z,2.70
2022-10-22T21:57:29.970Z,3.08
2022-10-22T22:02:50.936Z,2.17
2022-10-22T22:08:11.441Z,2.35
2022-10-22T22:13:33.613Z,2.75
2022-10-22T22:18:55.488Z,3.70
2022-10-22T22:24:16.644Z,3.53
2022-10-22T22:29:37.257Z,2.47
2022-10-22T22:34:58.512Z,3.33
2022-10-22T22:40:19.310Z,2.75
2022-10-22T22:45:40.754Z,2.20
2022-10-22T22:51:03.224Z,2.28
2022-10-22T22:56:25.546Z,3.03
2022-10-22T23:01:48.175Z,2.42
2022-10-22T23:07:08.723Z,2.88
2022-10-22T23:12:29.232Z,3.20
2022-10-22T23:17:50.090Z,2.33
2022-10-22T23:23:10.597Z,2.35
2022-10-22T23:28:31.214Z,3.45
2022-10-22T23:33:52.123Z,2.75
2022-10-22T23:39:15.856Z,3.15
2022-10-22T23:44:36.453Z,3.63
2022-10-22T23:49:57.058Z,2.83
2022-10-22T23:55:19.163Z,2.38
